Main page
METAR-TAF:

METAR-TAF

Airports :

Tan Son Nhat International Airport

Ho Chi Minh City, Vietnam

latitude: 10-49N, longitude: 106-40E, elevation: 19 m

Current weather observation

The report was made 37 minutes ago, at 18:00 UTC
Wind 6 kt from the Southeast, varying between East/Southeast and South
Temperature 27°C
Humidity 58%
Pressure 1009 hPa
Visibility 10 km or more
Few clouds at a height of 1700 ft

METAR: VVTS 281800Z 14006KT 110V170 9999 FEW017 27/18 Q1009 NOSIG

Time: 01:37 (18:37 UTC)

Forecast

The report was made 1 hour and 37 minutes ago, at 17:00 UTC
Forecast valid from 28 at 18 UTC to 29 at 24 UTC
Wind 3 kt from variable directions
Visibility 10 km or more
Scattered clouds at a height of 1700 ft
Becoming
from 29 at 05 UTC to 29 at 06 UTC
Wind 10 kt from the Southeast

TAF: VVTS 281700Z 2818/2924 VRB03KT 9999 SCT017 BECMG 2905/2906 14010KT

Weather observations and forecasts of more than 4000 airports (METAR and TAF reports).

The available stations are represented by yellow and red dots on the map.

Hover mouse over dot to see the name of the station.

Then click to see weather observations and forecasts.

To change the map : click on the green buttons with a black cross to zoom in, on the green button with a dash to zoom out, or on the green arrows for adjacent maps.


METAR-TAF: